Terminal Aerodrome Forecast
Issued by NWS Sterling, VA

Current Version | Previous Version | Graphics & Text | Print | Product List | Glossary On
Versions: 1 2 3 4 5 6 7 8 9 10 11 12 13 14 15 16 17 18 19
000
FTUS41 KLWX 262324
TAFMRB
TAF
KMRB 262324Z 2700/2724 27009G19KT P6SM SCT045 OVC060
     FM270200 33012G20KT 3SM -SHRA OVC030
     FM270700 33008KT 3SM -RA OVC015
     FM271000 34005KT P6SM OVC025
     FM271700 33010G18KT P6SM BKN025
     FM271800 33011G20KT P6SM BKN050=

USA.gov is the U.S. government's official web portal to all federal, state and local government web resources and services.